Niledutch Spirit — 4RBK — position and weather

sailwx.info

Track history (hours):
 
Tides and Currents Weather Stations Pressure Air Temp Water Temp Dewpoint Dewpoint Depression Visibility Wind Speed Wind Dir Waves Ship Positions

Niledutch Spirit

Last reported at 2018-May-10 00:53 UTC. Time now 2018-May-23 03:19 UTC.
Position N 08°03' W 014°36'.
Warning: this ship's position is 13 days out of date.

Length 140 m; draft 8.5 m.

Type: Ship (hazmat cat A). MMSI: 417222324.

Date/timePositionNaut miles runAvg speedWind from/ knotsBaromVisibWave heightAir tempDewpointWater temp
2018-May-10 00:53N 08°03' W 014°36'814.7
2018-May-10 00:20N 08°08' W 014°43'914.8
2018-May-09 23:41N 08°13' W 014°51'314.9
2018-May-09 23:30N 08°14' W 014°53'1014.9
2018-May-09 22:51N 08°20' W 015°01'514.9
2018-May-09 22:31N 08°23' W 015°05'2314.7
2018-May-09 20:57N 08°36' W 015°24'714.3
2018-May-09 20:27N 08°40' W 015°30'614.2
2018-May-09 20:00N 08°44' W 015°35'714.1
2018-May-09 19:30N 08°48' W 015°41'714.2
2018-May-09 19:00N 08°52' W 015°47'714.3
2018-May-09 18:31N 08°56' W 015°53'714.2
2018-May-09 18:00N 09°00' W 015°59'1514.3
2018-May-09 16:58N 09°11' W 016°09'613.2
2018-May-09 16:29N 09°15' W 016°14'4512.9
2018-May-09 12:59N 09°47' W 016°47'714.4
2018-May-09 12:30N 09°52' W 016°52'713.9
2018-May-09 12:00N 09°57' W 016°57'1014.6
2018-May-09 11:18N 10°04' W 017°04'  
2018-May-02 17:34N 28°09' W 016°11'114.5
2018-May-02 17:30N 28°10' W 016°11'714.6
2018-May-02 17:00N 28°16' W 016°05'714.2
2018-May-02 16:30N 28°21' W 016°00'714.0
2018-May-02 15:59N 28°27' W 015°55'813.0
2018-May-02 15:22N 28°33' W 015°49'5 9.6
2018-May-02 14:49N 28°37' W 015°45'65114.0
2018-Apr-30 16:21N 38°12' W 009°40'513.9
2018-Apr-30 16:00N 38°17' W 009°37'714.0
2018-Apr-30 15:30N 38°23' W 009°33'713.8
2018-Apr-30 15:00N 38°29' W 009°28'713.7
2018-Apr-30 14:30N 38°35' W 009°24'612.7
2018-Apr-30 14:01N 38°40' W 009°19'5 9.0
2018-Apr-30 13:29N 38°41' W 009°13'4 8.3
2018-Apr-30 13:01N 38°42' W 009°08'2 3.4
2018-Apr-30 12:21N 38°44' W 009°06'0 0.0
2018-Apr-30 11:54N 38°44' W 009°06'0 0.0
2018-Apr-30 11:27N 38°44' W 009°06'0 0.0
2018-Apr-30 10:51N 38°44' W 009°06'0 0.0
2018-Apr-30 10:27N 38°44' W 009°06'0 0.0
2018-Apr-30 09:54N 38°44' W 009°06'0 0.0
2018-Apr-30 07:33N 38°44' W 009°06'0 0.0
2018-Apr-30 07:30N 38°44' W 009°06'0 0.0
2018-Apr-30 07:00N 38°44' W 009°06'0 0.0
2018-Apr-30 06:27N 38°44' W 009°06'0 0.0
2018-Apr-30 06:00N 38°44' W 009°06'0 0.0
2018-Apr-30 05:30N 38°44' W 009°06'0 0.0
2018-Apr-30 04:39N 38°44' W 009°06'0 0.0
2018-Apr-30 04:27N 38°44' W 009°06'0 0.0
2018-Apr-30 03:57N 38°44' W 009°06'0 0.0
2018-Apr-30 03:27N 38°44' W 009°06'0 0.0
2018-Apr-30 03:00N 38°44' W 009°06'0 0.0
2018-Apr-30 02:30N 38°44' W 009°06'0 0.0
2018-Apr-30 02:00N 38°44' W 009°06'0 0.0
2018-Apr-30 01:30N 38°44' W 009°06'  
Track history (hours):
 
Tides and Currents Weather Stations Pressure Air Temp Water Temp Dewpoint Dewpoint Depression Visibility Wind Speed Wind Dir Waves Ship Positions

Niledutch Spirit

Last reported at 2018-May-10 00:53 UTC. Time now 2018-May-23 03:19 UTC.
Position N 08°03' W 014°36'.
Warning: this ship's position is 13 days out of date.

Length 140 m; draft 8.5 m.

Type: Ship (hazmat cat A). MMSI: 417222324.

Date/timePositionNaut miles runAvg speedWind from/ knotsBaromVisibWave heightAir tempDewpointWater temp
2018-May-10 00:53N 08°03' W 014°36'814.7
2018-May-10 00:20N 08°08' W 014°43'914.8
2018-May-09 23:41N 08°13' W 014°51'314.9
2018-May-09 23:30N 08°14' W 014°53'1014.9
2018-May-09 22:51N 08°20' W 015°01'514.9
2018-May-09 22:31N 08°23' W 015°05'2314.7
2018-May-09 20:57N 08°36' W 015°24'714.3
2018-May-09 20:27N 08°40' W 015°30'614.2
2018-May-09 20:00N 08°44' W 015°35'714.1
2018-May-09 19:30N 08°48' W 015°41'714.2
2018-May-09 19:00N 08°52' W 015°47'714.3
2018-May-09 18:31N 08°56' W 015°53'714.2
2018-May-09 18:00N 09°00' W 015°59'1514.3
2018-May-09 16:58N 09°11' W 016°09'613.2
2018-May-09 16:29N 09°15' W 016°14'4512.9
2018-May-09 12:59N 09°47' W 016°47'714.4
2018-May-09 12:30N 09°52' W 016°52'713.9
2018-May-09 12:00N 09°57' W 016°57'1014.6
2018-May-09 11:18N 10°04' W 017°04'  
2018-May-02 17:34N 28°09' W 016°11'114.5
2018-May-02 17:30N 28°10' W 016°11'714.6
2018-May-02 17:00N 28°16' W 016°05'714.2
2018-May-02 16:30N 28°21' W 016°00'714.0
2018-May-02 15:59N 28°27' W 015°55'813.0
2018-May-02 15:22N 28°33' W 015°49'5 9.6
2018-May-02 14:49N 28°37' W 015°45'65114.0
2018-Apr-30 16:21N 38°12' W 009°40'513.9
2018-Apr-30 16:00N 38°17' W 009°37'714.0
2018-Apr-30 15:30N 38°23' W 009°33'713.8
2018-Apr-30 15:00N 38°29' W 009°28'713.7
2018-Apr-30 14:30N 38°35' W 009°24'612.7
2018-Apr-30 14:01N 38°40' W 009°19'5 9.0
2018-Apr-30 13:29N 38°41' W 009°13'4 8.3
2018-Apr-30 13:01N 38°42' W 009°08'2 3.4
2018-Apr-30 12:21N 38°44' W 009°06'0 0.0
2018-Apr-30 11:54N 38°44' W 009°06'0 0.0
2018-Apr-30 11:27N 38°44' W 009°06'0 0.0
2018-Apr-30 10:51N 38°44' W 009°06'0 0.0
2018-Apr-30 10:27N 38°44' W 009°06'0 0.0
2018-Apr-30 09:54N 38°44' W 009°06'0 0.0
2018-Apr-30 07:33N 38°44' W 009°06'0 0.0
2018-Apr-30 07:30N 38°44' W 009°06'0 0.0
2018-Apr-30 07:00N 38°44' W 009°06'0 0.0
2018-Apr-30 06:27N 38°44' W 009°06'0 0.0
2018-Apr-30 06:00N 38°44' W 009°06'0 0.0
2018-Apr-30 05:30N 38°44' W 009°06'0 0.0
2018-Apr-30 04:39N 38°44' W 009°06'0 0.0
2018-Apr-30 04:27N 38°44' W 009°06'0 0.0
2018-Apr-30 03:57N 38°44' W 009°06'0 0.0
2018-Apr-30 03:27N 38°44' W 009°06'0 0.0
2018-Apr-30 03:00N 38°44' W 009°06'0 0.0
2018-Apr-30 02:30N 38°44' W 009°06'0 0.0
2018-Apr-30 02:00N 38°44' W 009°06'0 0.0
2018-Apr-30 01:30N 38°44' W 009°06'  

Dump ship's entire track history